Bowling Green Warren County Regional Airport
KBWG : now visible

Airfield :











YOU CAN JOIN US ON...

 
LOGIN :

Register | Disclaimer

   EN    FR    IT 

 









Legend :    VFR   Marginal VFR   IFR   Intensive IFR   Very Intensive IFR
Visi :
Ceiling :
>= 8 km
>= 3000ft
5 to 8 km
1000 to 3000 ft
1500m to 5 km
500 to 1000 ft
800 to 1500m
200 to 500 ft
< 800m
< 200 ft
Symbols :   Thunderstorms  Fog  Heavy snow  Heavy precipitations  Wind > 20 kt






- Airport Elevation : 547 ft


KBWG - Bowling Green Warren County Regional

CURRENT METAR :
  • 081011Z AUTO 04006KT 4SM -RA BR OVC003 12/10 A3025 RMK AO2 P0000 T01170100

EXPIRED METARs :
  • 080953Z AUTO 04008KT 2SM -RA BR OVC003 12/11 A3025 RMK AO2 RAB44 SLP241 P0001 T01170106
  • 080928Z AUTO 03004KT 4SM BR OVC004 12/11 A3025 RMK AO2 T01220106
  • 080914Z AUTO 05004KT 5SM BR OVC005 12/11 A3026 RMK AO2 T01220106
  • 080853Z AUTO 05006KT 4SM BR OVC004 12/11 A3025 RMK AO2 SLP243 T01220106 56012
  • 080829Z AUTO 07005KT 3SM BR OVC003 12/11 A3026 RMK AO2 T01220111
  • 080811Z AUTO 05004KT 2SM BR OVC002 12/11 A3026 RMK AO2 T01220111
  • 080732Z AUTO 00000KT 3/4SM BR VV003 12/11 A3026 RMK AO2 T01170111

TAF KBWG
Valid from the 08 at 10:00 until the 09 at 06:00 UTC


081002Z 0810/0906 04004KT 2SM -RA BR OVC003
FM081300 05005KT 3SM -RA BR OVC006
TEMPO 0813/0817 1 1/2SM RA BR
FM082100 03004KT 5SM BR OVC006
KZME FIR / North America



MET'MAP, your aeronautical weather chart ! - Copyright ORBIFLY December 2007 - Disclaimer

ORBIFLY MET'MAP TEAM :

Programming & Development : Alexandra Zaïnal
Original concept : Baudouin d'Aumeries
Technical & hardware support : Manuel Goepfert
Assistance : Marc-Olivier Méhu




SOURCES & CREDITS :

   NOAA       Earth
Advisory